createdAt,value
2022-09-22T00:01:30.190Z,28.00
2022-09-22T00:04:00.344Z,30.90
2022-09-22T00:06:32.909Z,42.40
2022-09-22T00:09:01.814Z,37.17
2022-09-22T00:11:32.257Z,37.45
2022-09-22T00:14:14.496Z,38.75
2022-09-22T00:16:47.173Z,39.47
2022-09-22T00:19:17.059Z,36.42
2022-09-22T00:21:45.238Z,29.67
2022-09-22T00:24:13.191Z,37.05
2022-09-22T00:26:41.541Z,30.90
2022-09-22T00:29:09.908Z,28.73
2022-09-22T00:31:38.912Z,34.33
2022-09-22T00:34:07.472Z,36.72
2022-09-22T00:36:35.567Z,31.15
2022-09-22T00:39:03.585Z,32.85
2022-09-22T00:41:34.135Z,33.13
2022-09-22T00:44:26.524Z,32.33
2022-09-22T00:47:13.283Z,28.45
2022-09-22T00:49:59.566Z,28.98
2022-09-22T00:53:00.710Z,36.83
2022-09-22T00:55:38.307Z,40.08
2022-09-22T00:58:11.978Z,35.67
2022-09-22T01:00:39.840Z,28.58
2022-09-22T01:03:12.209Z,32.47
2022-09-22T01:05:40.603Z,32.65
2022-09-22T01:08:08.567Z,34.90
2022-09-22T01:10:36.424Z,34.20
2022-09-22T01:13:31.264Z,31.92
2022-09-22T01:16:02.672Z,38.22
2022-09-22T01:18:49.526Z,34.75
2022-09-22T01:21:51.882Z,35.88
2022-09-22T01:24:45.514Z,32.35
2022-09-22T01:27:16.564Z,30.73
2022-09-22T01:30:05.518Z,32.35
2022-09-22T01:32:46.123Z,37.97
2022-09-22T01:35:28.396Z,41.58
2022-09-22T01:38:05.035Z,41.33
2022-09-22T01:40:48.885Z,46.97
2022-09-22T01:43:25.665Z,44.83
2022-09-22T01:45:53.245Z,37.95
2022-09-22T01:48:23.785Z,48.33
2022-09-22T01:51:04.643Z,43.63
2022-09-22T01:56:05.402Z,40.50
2022-09-22T01:58:39.253Z,37.78
2022-09-22T02:01:17.564Z,33.15
2022-09-22T02:04:22.097Z,45.60
2022-09-22T02:07:05.671Z,56.78
2022-09-22T02:09:35.152Z,45.15
2022-09-22T02:12:03.711Z,70.63
2022-09-22T02:14:31.595Z,123.05
2022-09-22T02:17:01.639Z,102.13
2022-09-22T02:19:33.381Z,176.57
2022-09-22T02:22:01.135Z,157.18
2022-09-22T02:24:36.118Z,127.60
2022-09-22T02:27:27.504Z,154.15
2022-09-22T02:30:05.733Z,173.45
2022-09-22T02:32:34.317Z,81.18
2022-09-22T02:35:02.274Z,72.00
2022-09-22T02:37:53.738Z,77.32
2022-09-22T02:40:49.935Z,77.25
2022-09-22T02:43:24.565Z,73.50
2022-09-22T02:46:13.615Z,67.57
2022-09-22T02:48:46.678Z,76.30
2022-09-22T02:51:14.868Z,74.38
2022-09-22T02:53:42.415Z,70.75
2022-09-22T02:56:10.087Z,100.00
2022-09-22T02:58:37.658Z,112.18
2022-09-22T03:03:37.591Z,92.43
2022-09-22T03:06:05.508Z,87.72
2022-09-22T03:08:33.511Z,86.85
2022-09-22T03:11:01.315Z,73.05
2022-09-22T03:13:29.177Z,91.55
2022-09-22T03:15:57.119Z,79.72
2022-09-22T03:18:24.955Z,72.28
2022-09-22T03:20:52.651Z,63.20
2022-09-22T03:23:20.345Z,63.08
2022-09-22T03:25:47.999Z,62.20
2022-09-22T03:28:15.997Z,61.55
2022-09-22T03:30:43.692Z,53.47
2022-09-22T03:33:11.317Z,61.38
2022-09-22T03:35:39.272Z,60.13
2022-09-22T03:38:07.030Z,66.43
2022-09-22T03:40:34.850Z,57.15
2022-09-22T03:43:02.542Z,52.80
2022-09-22T03:45:30.239Z,50.35
2022-09-22T03:47:59.192Z,87.95
2022-09-22T03:50:28.481Z,60.63
2022-09-22T03:52:57.721Z,46.40
2022-09-22T03:55:25.559Z,44.78
2022-09-22T03:57:53.128Z,41.92
2022-09-22T04:00:20.670Z,41.78
2022-09-22T04:02:48.356Z,49.85
2022-09-22T04:05:16.761Z,41.72
2022-09-22T04:07:45.558Z,42.95
2022-09-22T04:10:13.683Z,41.90
2022-09-22T04:12:41.569Z,39.08
2022-09-22T04:15:09.746Z,43.75
2022-09-22T04:17:46.538Z,45.90
2022-09-22T04:20:14.194Z,42.00
2022-09-22T04:22:41.849Z,37.20
2022-09-22T04:25:11.972Z,40.10
2022-09-22T04:27:40.826Z,46.65
2022-09-22T04:30:09.152Z,39.72
2022-09-22T04:32:36.803Z,42.25
2022-09-22T04:35:04.626Z,35.25
2022-09-22T04:37:32.441Z,34.47
2022-09-22T04:40:00.329Z,43.00
2022-09-22T04:42:28.014Z,34.70
2022-09-22T04:45:02.070Z,32.00
2022-09-22T04:47:30.297Z,36.30
2022-09-22T04:49:58.363Z,37.75
2022-09-22T04:52:26.887Z,34.63
2022-09-22T04:54:54.422Z,38.20
2022-09-22T04:57:22.078Z,44.47
2022-09-22T04:59:49.729Z,42.38
2022-09-22T05:02:17.893Z,43.78
2022-09-22T05:04:45.542Z,45.88
2022-09-22T05:07:15.131Z,63.00
2022-09-22T05:09:44.103Z,59.80
2022-09-22T05:12:11.754Z,59.22
2022-09-22T05:14:40.126Z,65.05
2022-09-22T05:17:07.785Z,70.40
2022-09-22T05:19:35.515Z,75.82
2022-09-22T05:22:03.146Z,106.47
2022-09-22T05:24:32.063Z,85.20
2022-09-22T05:27:00.107Z,87.78
2022-09-22T05:29:28.143Z,97.43
2022-09-22T05:31:55.896Z,153.98
2022-09-22T05:34:23.597Z,100.85
2022-09-22T05:36:51.477Z,148.63
2022-09-22T05:39:19.215Z,106.45
2022-09-22T05:41:49.954Z,101.55
2022-09-22T05:44:17.674Z,101.47
2022-09-22T05:46:46.901Z,86.22
2022-09-22T05:49:14.539Z,103.15
2022-09-22T05:51:42.261Z,107.13
2022-09-22T05:54:10.277Z,122.22
2022-09-22T05:56:39.373Z,94.72
2022-09-22T05:59:07.113Z,114.18
2022-09-22T06:01:34.872Z,78.82
2022-09-22T06:04:02.658Z,116.47
2022-09-22T06:06:30.665Z,102.65
2022-09-22T06:08:58.682Z,86.22
2022-09-22T06:11:26.375Z,167.93
2022-09-22T06:13:54.754Z,88.65
2022-09-22T06:16:22.474Z,85.35
2022-09-22T06:18:50.212Z,68.25
2022-09-22T06:21:17.839Z,64.80
2022-09-22T06:23:45.478Z,73.35
2022-09-22T06:26:13.086Z,90.63
2022-09-22T06:28:40.721Z,65.95
2022-09-22T06:31:08.589Z,77.00
2022-09-22T06:33:36.254Z,63.90
2022-09-22T06:36:08.182Z,75.32
2022-09-22T06:38:35.951Z,72.38
2022-09-22T06:41:04.454Z,59.17
2022-09-22T06:43:33.142Z,67.97
2022-09-22T06:46:03.000Z,55.15
2022-09-22T06:48:32.195Z,62.08
2022-09-22T06:50:59.921Z,48.42
2022-09-22T06:53:27.860Z,50.72
2022-09-22T06:55:55.617Z,52.78
2022-09-22T06:58:23.404Z,43.05
2022-09-22T07:00:51.510Z,49.95
2022-09-22T07:03:24.532Z,57.97
2022-09-22T07:06:11.134Z,47.03
2022-09-22T07:08:39.789Z,44.78
2022-09-22T07:11:10.744Z,42.50
2022-09-22T07:13:41.029Z,37.80
2022-09-22T07:16:10.482Z,42.80
2022-09-22T07:18:41.958Z,36.13
2022-09-22T07:21:16.776Z,27.02
2022-09-22T07:23:44.499Z,32.47
2022-09-22T07:26:13.911Z,31.58
2022-09-22T07:28:42.856Z,33.17
2022-09-22T07:31:13.211Z,26.83
2022-09-22T07:33:43.585Z,30.85
2022-09-22T07:36:15.334Z,31.33
2022-09-22T07:38:43.889Z,29.45
2022-09-22T07:41:13.263Z,31.92
2022-09-22T07:43:41.398Z,33.88
2022-09-22T07:46:09.365Z,31.73
2022-09-22T07:48:45.829Z,30.88
2022-09-22T07:51:20.872Z,26.10
2022-09-22T07:54:02.651Z,24.67
2022-09-22T07:58:58.894Z,20.30
2022-09-22T08:01:26.932Z,20.52
2022-09-22T08:03:57.326Z,23.92
2022-09-22T08:06:25.201Z,24.33
2022-09-22T08:08:55.550Z,25.42
2022-09-22T08:11:25.677Z,22.15
2022-09-22T08:13:55.949Z,21.42
2022-09-22T08:16:28.675Z,23.17
2022-09-22T08:18:58.299Z,24.88
2022-09-22T08:21:27.439Z,24.52
2022-09-22T08:23:56.597Z,19.73
2022-09-22T08:26:24.246Z,18.38
2022-09-22T08:28:54.459Z,15.23
2022-09-22T08:31:23.279Z,15.50
2022-09-22T08:33:54.263Z,15.85
2022-09-22T08:36:25.416Z,17.33
2022-09-22T08:38:54.584Z,14.00
2022-09-22T08:42:09.763Z,13.80
2022-09-22T08:44:44.849Z,13.95
2022-09-22T08:47:17.111Z,12.50
2022-09-22T08:50:05.878Z,13.35
2022-09-22T08:52:48.618Z,15.95
2022-09-22T08:55:24.356Z,13.32
2022-09-22T08:57:57.001Z,12.73
2022-09-22T09:00:25.811Z,12.48
2022-09-22T09:03:10.689Z,11.57
2022-09-22T09:05:48.305Z,15.80
2022-09-22T09:08:41.615Z,12.23
2022-09-22T09:11:19.441Z,11.90
2022-09-22T09:14:00.322Z,14.52
2022-09-22T09:16:44.598Z,9.38
2022-09-22T09:19:35.588Z,12.48
2022-09-22T09:22:25.534Z,10.93
2022-09-22T09:25:24.345Z,11.75
2022-09-22T09:28:01.125Z,9.18
2022-09-22T09:30:30.586Z,10.18
2022-09-22T09:33:05.738Z,7.88
2022-09-22T09:35:53.810Z,9.07
2022-09-22T09:38:29.951Z,9.40
2022-09-22T09:41:19.091Z,8.75
2022-09-22T09:43:47.116Z,9.65
2022-09-22T09:46:24.932Z,8.60
2022-09-22T09:49:02.867Z,8.48
2022-09-22T09:51:30.691Z,9.63
2022-09-22T09:53:58.470Z,9.75
2022-09-22T09:56:28.269Z,7.07
2022-09-22T09:59:25.060Z,9.70
2022-09-22T10:01:54.385Z,8.18
2022-09-22T10:04:29.347Z,9.70
2022-09-22T10:10:37.797Z,7.43
2022-09-22T10:13:18.120Z,7.28
2022-09-22T10:15:48.574Z,8.98
2022-09-22T10:18:25.325Z,6.65
2022-09-22T10:21:18.441Z,8.60
2022-09-22T10:23:50.511Z,8.45
2022-09-22T10:26:30.344Z,9.45
2022-09-22T10:29:12.975Z,7.20
2022-09-22T10:31:41.836Z,5.55
2022-09-22T10:34:31.719Z,8.20
2022-09-22T10:37:00.210Z,10.43
2022-09-22T10:39:36.818Z,5.30
2022-09-22T10:42:08.116Z,6.95
2022-09-22T10:44:39.399Z,7.22
2022-09-22T10:47:31.271Z,6.57
2022-09-22T10:50:22.679Z,5.65
2022-09-22T10:53:31.315Z,6.60
2022-09-22T10:56:08.513Z,5.72
2022-09-22T10:59:01.044Z,4.20
2022-09-22T11:01:31.267Z,4.45
2022-09-22T11:04:19.833Z,4.68
2022-09-22T11:07:24.820Z,6.43
2022-09-22T11:10:39.806Z,4.32
2022-09-22T11:13:34.528Z,4.70
2022-09-22T11:16:13.454Z,4.20
2022-09-22T11:19:06.533Z,4.25
2022-09-22T11:21:44.742Z,5.55
2022-09-22T11:24:30.468Z,4.28
2022-09-22T11:26:59.524Z,4.22
2022-09-22T11:29:51.422Z,2.95
2022-09-22T11:32:34.351Z,2.40
2022-09-22T11:35:20.226Z,4.07
2022-09-22T11:37:53.942Z,3.67
2022-09-22T11:40:25.427Z,3.75
2022-09-22T11:43:02.266Z,3.30
2022-09-22T11:45:56.993Z,5.07
2022-09-22T11:48:56.189Z,3.65
2022-09-22T11:51:35.941Z,3.88
2022-09-22T11:54:21.711Z,3.17
2022-09-22T11:56:55.696Z,3.58
2022-09-22T11:59:55.675Z,3.28
2022-09-22T12:02:27.361Z,3.63
2022-09-22T12:05:15.513Z,4.15
2022-09-22T12:07:55.921Z,4.53
2022-09-22T12:10:31.445Z,2.83
2022-09-22T12:12:59.134Z,3.72
2022-09-22T12:15:35.947Z,4.28
2022-09-22T12:18:14.062Z,2.78
2022-09-22T12:21:13.764Z,2.80
2022-09-22T12:23:45.191Z,4.20
2022-09-22T12:26:24.792Z,3.50
2022-09-22T12:28:52.467Z,2.95
2022-09-22T12:31:21.454Z,3.92
2022-09-22T12:33:54.209Z,3.65
2022-09-22T12:36:35.218Z,4.30
2022-09-22T12:39:25.602Z,3.30
2022-09-22T12:42:04.250Z,5.20
2022-09-22T12:44:43.305Z,7.15
2022-09-22T12:47:16.839Z,4.72
2022-09-22T12:49:49.505Z,4.38
2022-09-22T12:52:42.285Z,4.60
2022-09-22T12:55:28.436Z,3.42
2022-09-22T12:57:57.722Z,3.80
2022-09-22T13:00:32.909Z,4.25
2022-09-22T13:03:01.794Z,3.03
2022-09-22T13:05:29.406Z,3.78
2022-09-22T13:07:57.173Z,2.78
2022-09-22T13:10:25.174Z,3.35
2022-09-22T13:13:09.427Z,6.15
2022-09-22T13:15:51.316Z,2.67
2022-09-22T13:18:41.393Z,3.70
2022-09-22T13:21:12.070Z,2.97
2022-09-22T13:23:39.642Z,4.80
2022-09-22T13:26:17.255Z,3.00
2022-09-22T13:28:44.873Z,7.72
2022-09-22T13:31:14.752Z,24.27
2022-09-22T13:33:43.503Z,9.02
2022-09-22T13:36:17.891Z,4.30
2022-09-22T13:38:51.266Z,3.13
2022-09-22T13:41:21.370Z,4.47
2022-09-22T13:43:49.245Z,3.33
2022-09-22T13:46:45.681Z,4.57
2022-09-22T13:49:37.428Z,4.53
2022-09-22T13:52:07.469Z,3.20
2022-09-22T13:54:36.695Z,7.95
2022-09-22T13:57:06.479Z,5.55
2022-09-22T13:59:38.685Z,10.93
2022-09-22T14:02:11.434Z,12.68
2022-09-22T14:04:50.902Z,10.48
2022-09-22T14:07:19.616Z,13.20
2022-09-22T14:09:47.618Z,5.82
2022-09-22T14:12:15.712Z,9.30
2022-09-22T14:14:44.201Z,6.53
2022-09-22T14:17:16.737Z,5.75
2022-09-22T14:20:04.781Z,5.72
2022-09-22T14:22:33.488Z,9.27
2022-09-22T14:25:02.272Z,9.68
2022-09-22T14:27:49.061Z,6.90
2022-09-22T14:30:17.944Z,8.48
2022-09-22T14:32:51.075Z,8.05
2022-09-22T14:35:33.106Z,10.38
2022-09-22T14:38:08.252Z,12.38
2022-09-22T14:40:54.302Z,12.68
2022-09-22T14:43:24.306Z,28.40
2022-09-22T14:46:07.424Z,43.20
2022-09-22T14:48:37.001Z,22.75
2022-09-22T14:51:20.485Z,36.20
2022-09-22T14:53:50.828Z,34.17
2022-09-22T14:56:22.449Z,34.47
2022-09-22T14:58:52.408Z,14.40
2022-09-22T15:01:41.598Z,6.18
2022-09-22T15:04:13.816Z,8.45
2022-09-22T15:06:41.238Z,10.52
2022-09-22T15:09:17.027Z,12.80
2022-09-22T15:11:50.541Z,7.03
2022-09-22T15:14:41.683Z,9.00
2022-09-22T15:17:53.149Z,10.13
2022-09-22T15:20:57.512Z,9.93
2022-09-22T15:23:26.779Z,15.05
2022-09-22T15:25:55.483Z,67.40
2022-09-22T15:28:25.245Z,17.75
2022-09-22T15:30:53.211Z,12.80
2022-09-22T15:33:21.330Z,15.77
2022-09-22T15:36:13.175Z,10.52
2022-09-22T15:38:41.408Z,9.70
2022-09-22T15:41:14.324Z,9.25
2022-09-22T15:43:42.189Z,13.40
2022-09-22T15:46:37.364Z,12.50
2022-09-22T15:49:21.117Z,86.03
2022-09-22T15:51:52.085Z,160.55
2022-09-22T15:54:22.057Z,103.43
2022-09-22T15:56:51.506Z,67.75
2022-09-22T15:59:22.013Z,23.63
2022-09-22T16:01:50.003Z,21.85
2022-09-22T16:04:19.006Z,12.90
2022-09-22T16:06:54.522Z,16.70
2022-09-22T16:09:25.418Z,15.30
2022-09-22T16:11:54.009Z,17.48
2022-09-22T16:14:23.009Z,18.67
2022-09-22T16:16:51.864Z,27.52
2022-09-22T16:19:20.432Z,52.42
2022-09-22T16:21:52.138Z,80.43
2022-09-22T16:24:22.573Z,50.08
2022-09-22T16:26:51.983Z,102.15
2022-09-22T16:29:19.692Z,100.78
2022-09-22T16:31:47.402Z,90.97
2022-09-22T16:34:15.264Z,56.08
2022-09-22T16:36:44.683Z,50.60
2022-09-22T16:39:12.293Z,65.88
2022-09-22T16:41:44.282Z,49.95
2022-09-22T16:44:12.061Z,33.92
2022-09-22T16:46:39.728Z,42.90
2022-09-22T16:49:08.260Z,33.70
2022-09-22T16:51:41.114Z,37.55
2022-09-22T16:54:13.468Z,32.20
2022-09-22T16:56:44.067Z,20.92
2022-09-22T16:59:15.500Z,19.58
2022-09-22T17:04:13.177Z,44.55
2022-09-22T17:06:41.791Z,35.80
2022-09-22T17:09:10.307Z,34.22
2022-09-22T17:11:40.374Z,20.30
2022-09-22T17:14:12.553Z,36.10
2022-09-22T17:16:44.130Z,45.05
2022-09-22T17:19:17.292Z,43.35
2022-09-22T17:21:48.352Z,38.75
2022-09-22T17:24:16.271Z,72.10
2022-09-22T17:26:52.249Z,90.43
2022-09-22T17:29:26.572Z,61.92
2022-09-22T17:32:04.510Z,27.80
2022-09-22T17:34:33.068Z,29.17
2022-09-22T17:37:01.004Z,23.48
2022-09-22T17:39:29.525Z,25.15
2022-09-22T17:41:57.142Z,29.25
2022-09-22T17:44:28.602Z,30.58
2022-09-22T17:47:16.245Z,102.03
2022-09-22T17:50:02.344Z,95.40
2022-09-22T17:53:08.679Z,126.93
2022-09-22T17:55:36.503Z,51.55
2022-09-22T17:58:04.783Z,29.55
2022-09-22T18:00:33.967Z,23.33
2022-09-22T18:03:02.414Z,26.05
2022-09-22T18:05:32.288Z,24.48
2022-09-22T18:08:00.072Z,90.65
2022-09-22T18:10:32.490Z,70.45
2022-09-22T18:13:01.095Z,66.70
2022-09-22T18:15:29.383Z,72.65
2022-09-22T18:17:58.228Z,86.45
2022-09-22T18:20:26.351Z,50.58
2022-09-22T18:22:54.433Z,86.53
2022-09-22T18:25:25.659Z,109.30
2022-09-22T18:27:54.682Z,43.63
2022-09-22T18:30:22.413Z,52.67
2022-09-22T18:32:51.877Z,26.30
2022-09-22T18:35:20.293Z,44.47
2022-09-22T18:37:47.954Z,27.40
2022-09-22T18:40:17.205Z,97.57
2022-09-22T18:42:45.434Z,59.63
2022-09-22T18:45:14.347Z,29.00
2022-09-22T18:47:43.828Z,25.15
2022-09-22T18:50:11.877Z,16.95
2022-09-22T18:52:43.001Z,19.60
2022-09-22T18:55:11.776Z,18.17
2022-09-22T18:57:40.233Z,15.48
2022-09-22T19:00:09.543Z,32.22
2022-09-22T19:02:37.790Z,46.88
2022-09-22T19:05:05.899Z,51.28
2022-09-22T19:07:43.851Z,14.80
2022-09-22T19:10:18.975Z,17.20
2022-09-22T19:12:46.624Z,19.52
2022-09-22T19:15:16.797Z,15.05
2022-09-22T19:17:46.318Z,15.45
2022-09-22T19:20:15.793Z,17.92
2022-09-22T19:22:43.447Z,20.77
2022-09-22T19:25:11.865Z,23.35
2022-09-22T19:27:40.121Z,95.95
2022-09-22T19:30:09.549Z,42.88
2022-09-22T19:32:37.490Z,31.85
2022-09-22T19:35:06.122Z,15.55
2022-09-22T19:37:34.718Z,15.98
2022-09-22T19:40:02.574Z,14.45
2022-09-22T19:42:30.396Z,13.82
2022-09-22T19:44:58.266Z,19.08
2022-09-22T19:47:25.915Z,12.88
2022-09-22T19:49:53.528Z,16.02
2022-09-22T19:52:21.397Z,14.73
2022-09-22T19:54:51.270Z,13.77
2022-09-22T19:57:19.191Z,13.40
2022-09-22T19:59:46.784Z,16.70
2022-09-22T20:02:14.990Z,15.18
2022-09-22T20:04:42.588Z,15.25
2022-09-22T20:07:11.015Z,50.92
2022-09-22T20:09:39.059Z,23.85
2022-09-22T20:12:06.715Z,19.08
2022-09-22T20:14:34.608Z,184.95
2022-09-22T20:17:07.053Z,135.57
2022-09-22T20:19:40.497Z,70.10
2022-09-22T20:25:01.617Z,145.60
2022-09-22T20:27:33.921Z,145.57
2022-09-22T20:30:01.708Z,120.75
2022-09-22T20:32:31.742Z,107.35
2022-09-22T20:34:59.468Z,128.07
2022-09-22T20:37:27.294Z,128.98
2022-09-22T20:39:56.195Z,16.90
2022-09-22T20:42:24.283Z,19.67
2022-09-22T20:44:52.074Z,15.95
2022-09-22T20:47:21.313Z,14.50
2022-09-22T20:49:51.751Z,14.60
2022-09-22T20:52:20.366Z,15.20
2022-09-22T20:54:48.641Z,13.23
2022-09-22T20:57:16.994Z,11.82
2022-09-22T20:59:45.964Z,21.63
2022-09-22T21:02:14.207Z,19.73
2022-09-22T21:04:42.173Z,20.65
2022-09-22T21:07:11.449Z,19.05
2022-09-22T21:09:57.645Z,28.23
2022-09-22T21:12:31.082Z,21.50
2022-09-22T21:14:59.307Z,19.35
2022-09-22T21:17:32.978Z,20.63
2022-09-22T21:20:01.037Z,21.17
2022-09-22T21:22:29.038Z,21.35
2022-09-22T21:24:57.062Z,20.63
2022-09-22T21:27:25.250Z,15.98
2022-09-22T21:29:53.633Z,17.95
2022-09-22T21:32:21.330Z,17.38
2022-09-22T21:34:49.335Z,21.55
2022-09-22T21:37:17.154Z,21.02
2022-09-22T21:39:44.930Z,18.65
2022-09-22T21:42:12.679Z,19.65
2022-09-22T21:44:40.379Z,21.35
2022-09-22T21:47:08.217Z,22.17
2022-09-22T21:49:35.930Z,19.02
2022-09-22T21:52:03.593Z,18.02
2022-09-22T21:54:31.569Z,16.83
2022-09-22T21:56:59.177Z,14.68
2022-09-22T21:59:27.089Z,14.55
2022-09-22T22:01:54.834Z,14.35
2022-09-22T22:04:22.644Z,16.77
2022-09-22T22:06:51.765Z,14.32
2022-09-22T22:09:20.710Z,14.50
2022-09-22T22:11:55.677Z,13.75
2022-09-22T22:14:24.380Z,12.45
2022-09-22T22:16:53.262Z,13.23
2022-09-22T22:19:22.224Z,13.43
2022-09-22T22:21:50.825Z,13.00
2022-09-22T22:24:30.126Z,12.13
2022-09-22T22:27:01.720Z,13.93
2022-09-22T22:29:34.905Z,12.93
2022-09-22T22:32:04.105Z,16.88
2022-09-22T22:34:31.848Z,14.93
2022-09-22T22:36:59.582Z,17.30
2022-09-22T22:39:27.224Z,14.63
2022-09-22T22:41:55.476Z,13.18
2022-09-22T22:44:23.142Z,13.68
2022-09-22T22:46:51.618Z,13.00
2022-09-22T22:49:19.780Z,13.45
2022-09-22T22:51:49.339Z,38.70
2022-09-22T22:54:16.955Z,12.80
2022-09-22T22:56:48.909Z,13.30
2022-09-22T22:59:18.778Z,12.27
2022-09-22T23:01:46.356Z,17.17
2022-09-22T23:04:16.876Z,12.45
2022-09-22T23:06:47.443Z,17.30
2022-09-22T23:09:16.142Z,15.10
2022-09-22T23:11:44.149Z,20.35
2022-09-22T23:14:13.094Z,19.48
2022-09-22T23:16:46.223Z,39.10
2022-09-22T23:19:15.531Z,65.65
2022-09-22T23:21:45.293Z,47.60
2022-09-22T23:24:15.704Z,37.50
2022-09-22T23:26:44.145Z,40.95
2022-09-22T23:29:12.545Z,18.52
2022-09-22T23:31:40.121Z,19.05
2022-09-22T23:34:08.143Z,14.85
2022-09-22T23:36:36.006Z,28.48
2022-09-22T23:39:04.483Z,21.05
2022-09-22T23:41:34.257Z,24.23
2022-09-22T23:44:03.375Z,14.90
2022-09-22T23:46:31.505Z,16.60
2022-09-22T23:49:02.606Z,16.60
2022-09-22T23:51:30.782Z,14.85
2022-09-22T23:53:58.662Z,17.65
2022-09-22T23:56:26.365Z,15.65
2022-09-22T23:58:54.006Z,16.50
